Terminal Aerodrome Forecast
Issued by NWS Wakefield, VA

Home | Current Version | Previous Version | Text Only | Print | Product List | Glossary On
Versions: 1 2 3 4 5 6 7 8 9 10 11 12 13 14
142
FTUS41 KAKQ 010530
TAFORF
TAF
KORF 010530Z 0106/0206 20005KT P6SM SCT060
     FM011400 24005KT P6SM SCT100
     FM011800 29005KT P6SM VCSH SCT070
     FM012300 02005KT P6SM BKN060=

USA.gov is the U.S. government's official web portal to all federal, state and local government web resources and services.